Time;durP1;ratioP1;P1;durP2;ratioP2;P2;SDS_P1;SDS_P2;PMS_P1;PMS_P2;Temp;Humidity;BMP_temperature;BMP_pressure;BME280_temperature;BME280_humidity;BME280_pressure;Samples;Min_cycle;Max_cycle;Signal;HPM_P1;HPM_P2
2022/05/24 00:00:25;;;;;;;29.40;22.67;;;;;;;;;;4949507;28;20057;-59
2022/05/24 00:02:51;;;;;;;30.95;22.50;;;;;;;;;;4950546;28;20034;-60
2022/05/24 00:05:17;;;;;;;30.02;22.23;;;;;;;;;;4950824;28;20077;-60
2022/05/24 00:07:44;;;;;;;30.20;22.88;;;;;;;;;;4950888;29;20538;-57
2022/05/24 00:10:11;;;;;;;30.80;22.85;;;;;;;;;;4950658;29;20023;-60
2022/05/24 00:12:39;;;;;;;30.48;23.75;;;;;;;;;;4950928;29;20035;-60
2022/05/24 00:15:19;;;;;;;31.48;23.70;;;;;;;;;;5016730;28;20031;-59
2022/05/24 00:17:47;;;;;;;30.33;21.20;;;;;;;;;;4950620;29;20064;-60
2022/05/24 00:20:13;;;;;;;30.37;22.20;;;;;;;;;;4950869;29;20031;-60
2022/05/24 00:22:39;;;;;;;27.33;20.88;;;;;;;;;;4950658;28;20391;-59
2022/05/24 00:25:05;;;;;;;29.23;20.42;;;;;;;;;;4950620;29;20069;-60
2022/05/24 00:27:31;;;;;;;29.40;21.08;;;;;;;;;;4950849;28;20030;-58
2022/05/24 00:29:57;;;;;;;29.55;22.05;;;;;;;;;;4950958;29;20080;-60
2022/05/24 00:32:24;;;;;;;29.00;20.50;;;;;;;;;;5017429;28;20102;-60
2022/05/24 00:34:50;;;;;;;27.42;21.42;;;;;;;;;;4951084;28;20041;-61
2022/05/24 00:37:18;;;;;;;30.15;20.95;;;;;;;;;;4950770;28;20050;-59
2022/05/24 00:39:44;;;;;;;28.75;20.40;;;;;;;;;;4950949;28;20033;-58
2022/05/24 00:42:15;;;;;;;29.08;21.75;;;;;;;;;;4950754;28;20039;-60
2022/05/24 00:44:43;;;;;;;30.10;21.80;;;;;;;;;;4950743;28;20031;-61
2022/05/24 00:47:38;;;;;;;28.05;21.73;;;;;;;;;;4950895;28;20602;-60
2022/05/24 00:50:16;;;;;;;28.67;20.48;;;;;;;;;;4951279;28;20031;-62
2022/05/24 00:52:57;;;;;;;34.10;23.45;;;;;;;;;;4950716;28;20085;-61
2022/05/24 00:55:24;;;;;;;33.30;22.13;;;;;;;;;;5016512;28;20189;-59
2022/05/24 00:58:07;;;;;;;33.42;25.15;;;;;;;;;;4950665;28;20031;-59
2022/05/24 01:00:34;;;;;;;32.53;23.98;;;;;;;;;;5016940;28;20102;-60
2022/05/24 01:03:00;;;;;;;35.83;25.70;;;;;;;;;;5016676;28;20486;-61
2022/05/24 01:05:28;;;;;;;32.00;23.85;;;;;;;;;;5016600;28;20027;-59
2022/05/24 01:07:54;;;;;;;33.13;24.40;;;;;;;;;;4950461;28;20034;-60
2022/05/24 01:10:20;;;;;;;33.78;25.73;;;;;;;;;;4950406;29;20091;-61
2022/05/24 01:12:50;;;;;;;31.58;24.60;;;;;;;;;;5016467;28;20032;-61
2022/05/24 01:15:17;;;;;;;33.08;24.65;;;;;;;;;;4950880;28;20074;-59
2022/05/24 01:17:44;;;;;;;33.17;23.48;;;;;;;;;;4950450;28;20023;-61
2022/05/24 01:20:11;;;;;;;34.00;22.45;;;;;;;;;;4950603;28;20506;-61
2022/05/24 01:22:55;;;;;;;29.70;23.73;;;;;;;;;;4950420;29;20114;-60
2022/05/24 01:25:21;;;;;;;32.00;22.83;;;;;;;;;;4950293;28;20035;-60
2022/05/24 01:27:48;;;;;;;32.22;22.05;;;;;;;;;;4950140;28;20034;-61
2022/05/24 01:30:14;;;;;;;34.47;22.85;;;;;;;;;;4950363;29;20019;-59
2022/05/24 01:38:18;;;;;;;30.35;22.40;;;;;;;;;;4950831;29;20042;-61
2022/05/24 01:40:45;;;;;;;30.40;22.30;;;;;;;;;;4950543;29;20054;-60
2022/05/24 01:43:11;;;;;;;29.60;20.92;;;;;;;;;;5016714;28;20089;-61
2022/05/24 01:45:39;;;;;;;33.13;23.27;;;;;;;;;;4950401;29;20035;-61
2022/05/24 01:48:08;;;;;;;34.80;22.50;;;;;;;;;;4950238;28;20450;-60
2022/05/24 01:50:35;;;;;;;31.60;22.13;;;;;;;;;;4950100;28;20091;-61
2022/05/24 01:53:06;;;;;;;32.03;22.58;;;;;;;;;;4950135;29;20043;-59
2022/05/24 01:55:35;;;;;;;31.42;22.30;;;;;;;;;;5016579;28;20039;-61
2022/05/24 01:58:03;;;;;;;39.08;24.38;;;;;;;;;;5019547;28;20031;-56
2022/05/24 02:00:29;;;;;;;32.38;23.85;;;;;;;;;;4953556;29;20500;-60
2022/05/24 02:02:55;;;;;;;31.83;22.38;;;;;;;;;;4953246;29;20032;-58
2022/05/24 02:05:32;;;;;;;32.83;23.45;;;;;;;;;;4953410;28;20493;-60
2022/05/24 02:07:58;;;;;;;35.00;23.48;;;;;;;;;;4953391;29;20479;-61
2022/05/24 02:10:25;;;;;;;34.83;22.73;;;;;;;;;;5019430;28;20066;-61
2022/05/24 02:12:53;;;;;;;30.55;23.48;;;;;;;;;;4953507;28;20038;-59
2022/05/24 02:15:27;;;;;;;31.90;23.27;;;;;;;;;;4953384;28;20031;-61
2022/05/24 02:18:00;;;;;;;31.20;23.23;;;;;;;;;;4953132;29;20127;-59
2022/05/24 02:20:29;;;;;;;35.15;23.83;;;;;;;;;;4953226;29;20038;-61
2022/05/24 02:22:55;;;;;;;32.17;23.58;;;;;;;;;;5019932;28;20086;-60
2022/05/24 02:25:24;;;;;;;33.28;24.60;;;;;;;;;;4953099;29;20030;-60
2022/05/24 02:27:50;;;;;;;34.05;24.85;;;;;;;;;;4952870;28;20026;-60
2022/05/24 02:30:19;;;;;;;33.72;25.20;;;;;;;;;;4953024;28;20077;-59
2022/05/24 02:32:45;;;;;;;33.58;24.95;;;;;;;;;;4953150;28;20028;-61
2022/05/24 02:35:12;;;;;;;38.08;28.10;;;;;;;;;;4952803;28;20039;-58
2022/05/24 02:37:38;;;;;;;37.10;25.50;;;;;;;;;;4951929;29;20034;-60
2022/05/24 02:42:49;;;;;;;38.15;26.40;;;;;;;;;;4952075;29;20038;-61
2022/05/24 02:45:15;;;;;;;40.50;27.90;;;;;;;;;;4951913;29;20081;-62
2022/05/24 02:47:41;;;;;;;36.35;26.83;;;;;;;;;;4951801;28;20072;-59
2022/05/24 02:50:11;;;;;;;37.15;27.55;;;;;;;;;;4951908;29;20110;-60
2022/05/24 02:52:37;;;;;;;40.22;28.67;;;;;;;;;;5018260;28;20039;-60
2022/05/24 02:55:04;;;;;;;37.60;27.58;;;;;;;;;;4951868;29;20162;-57
2022/05/24 02:57:30;;;;;;;40.00;29.35;;;;;;;;;;4951756;29;20024;-60
2022/05/24 02:59:56;;;;;;;37.40;28.77;;;;;;;;;;4952121;29;20502;-59
2022/05/24 03:02:22;;;;;;;40.38;28.92;;;;;;;;;;4951980;29;20046;-58
2022/05/24 03:04:48;;;;;;;36.97;28.27;;;;;;;;;;5018016;28;20114;-59
2022/05/24 03:09:59;;;;;;;37.80;28.90;;;;;;;;;;4951848;29;20156;-60
2022/05/24 03:15:09;;;;;;;40.80;29.77;;;;;;;;;;4951889;29;20050;-59
2022/05/24 03:17:35;;;;;;;43.58;31.92;;;;;;;;;;5017763;28;20646;-60
2022/05/24 03:20:01;;;;;;;42.53;32.30;;;;;;;;;;4951720;29;20031;-60
2022/05/24 03:22:27;;;;;;;41.80;31.45;;;;;;;;;;4951621;29;20027;-60
2022/05/24 03:24:53;;;;;;;43.90;31.02;;;;;;;;;;4951444;29;20038;-59
2022/05/24 03:27:20;;;;;;;42.72;30.85;;;;;;;;;;4951226;28;20051;-60
2022/05/24 03:29:47;;;;;;;39.25;29.20;;;;;;;;;;4951505;28;20031;-60
2022/05/24 03:32:14;;;;;;;41.05;29.35;;;;;;;;;;4951339;28;20085;-60
2022/05/24 03:34:41;;;;;;;39.28;30.40;;;;;;;;;;4951375;29;20530;-59
2022/05/24 03:37:07;;;;;;;42.53;29.55;;;;;;;;;;4951374;29;20375;-60
2022/05/24 03:39:33;;;;;;;43.63;29.98;;;;;;;;;;4951067;28;20153;-59
2022/05/24 03:41:59;;;;;;;37.17;28.33;;;;;;;;;;4950924;29;20106;-59
2022/05/24 03:44:25;;;;;;;38.65;28.88;;;;;;;;;;4951022;29;20130;-61
2022/05/24 03:46:52;;;;;;;40.53;28.42;;;;;;;;;;4951484;28;20052;-61
2022/05/24 03:49:18;;;;;;;42.97;30.58;;;;;;;;;;4951025;29;20030;-61
2022/05/24 03:51:45;;;;;;;39.72;27.83;;;;;;;;;;4951062;28;20031;-62
2022/05/24 03:54:12;;;;;;;44.28;32.25;;;;;;;;;;5016910;28;20046;-60
2022/05/24 03:56:39;;;;;;;44.28;31.00;;;;;;;;;;4951056;28;20096;-58
2022/05/24 03:59:05;;;;;;;40.10;29.27;;;;;;;;;;4950718;28;20394;-60
2022/05/24 04:01:31;;;;;;;40.92;28.77;;;;;;;;;;4951127;29;20459;-59
2022/05/24 04:03:57;;;;;;;40.97;29.15;;;;;;;;;;4951075;29;20038;-61
2022/05/24 04:06:23;;;;;;;40.53;29.60;;;;;;;;;;4950863;28;20436;-60
2022/05/24 04:08:49;;;;;;;41.67;30.48;;;;;;;;;;4950358;29;20367;-61
2022/05/24 04:11:15;;;;;;;40.15;29.85;;;;;;;;;;4950864;28;20026;-59
2022/05/24 04:13:42;;;;;;;43.17;31.98;;;;;;;;;;4950838;29;20027;-61
2022/05/24 04:16:09;;;;;;;39.08;29.95;;;;;;;;;;4950776;29;20074;-60
2022/05/24 04:18:36;;;;;;;40.72;30.85;;;;;;;;;;4950001;28;20434;-60
2022/05/24 04:21:02;;;;;;;39.03;27.90;;;;;;;;;;4950704;28;20046;-59
2022/05/24 04:23:28;;;;;;;40.15;28.52;;;;;;;;;;4950734;29;20372;-61
2022/05/24 04:25:55;;;;;;;37.83;27.70;;;;;;;;;;4950612;28;20024;-61
2022/05/24 04:28:22;;;;;;;38.00;29.52;;;;;;;;;;4950385;29;20223;-59
2022/05/24 04:30:49;;;;;;;37.28;27.23;;;;;;;;;;4950397;28;20031;-61
2022/05/24 04:33:16;;;;;;;37.10;26.20;;;;;;;;;;4950427;29;20067;-60
2022/05/24 04:35:43;;;;;;;33.03;25.55;;;;;;;;;;4950111;28;20164;-60
2022/05/24 04:38:09;;;;;;;33.47;23.08;;;;;;;;;;4949931;29;20089;-61
2022/05/24 04:43:19;;;;;;;34.17;22.27;;;;;;;;;;4950208;29;20042;-59
2022/05/24 04:45:45;;;;;;;30.17;20.95;;;;;;;;;;4949861;29;20035;-60
2022/05/24 04:48:11;;;;;;;28.63;18.52;;;;;;;;;;4949585;29;20027;-60
2022/05/24 04:50:38;;;;;;;25.10;15.13;;;;;;;;;;4950145;29;20448;-60
2022/05/24 04:53:06;;;;;;;22.40;13.68;;;;;;;;;;4950009;29;20055;-58
2022/05/24 04:55:32;;;;;;;21.25;13.35;;;;;;;;;;4949708;29;20113;-60
2022/05/24 04:57:58;;;;;;;20.10;13.32;;;;;;;;;;4949441;28;20360;-60
2022/05/24 05:00:25;;;;;;;24.20;14.48;;;;;;;;;;4949745;29;20074;-60
2022/05/24 05:02:51;;;;;;;22.58;13.77;;;;;;;;;;5015724;28;20032;-57
2022/05/24 05:05:17;;;;;;;23.67;14.93;;;;;;;;;;5015717;28;20027;-62
2022/05/24 05:07:43;;;;;;;24.10;13.52;;;;;;;;;;4949806;28;20035;-60
2022/05/24 05:10:10;;;;;;;26.58;14.38;;;;;;;;;;4949540;29;20575;-62
2022/05/24 05:12:36;;;;;;;19.88;13.15;;;;;;;;;;4949706;29;20076;-61
2022/05/24 05:15:03;;;;;;;20.70;13.40;;;;;;;;;;4949912;29;20454;-62
2022/05/24 05:17:29;;;;;;;21.67;12.80;;;;;;;;;;5015491;28;20038;-61
2022/05/24 05:19:55;;;;;;;24.52;13.57;;;;;;;;;;4949571;29;20077;-61
2022/05/24 05:22:24;;;;;;;24.00;13.90;;;;;;;;;;4949605;29;20429;-62
2022/05/24 05:24:51;;;;;;;20.77;12.95;;;;;;;;;;5015410;28;20042;-61
2022/05/24 05:27:18;;;;;;;21.60;12.85;;;;;;;;;;5015275;28;20026;-61
2022/05/24 05:32:30;;;;;;;21.60;12.23;;;;;;;;;;4952810;29;20046;-60
2022/05/24 05:34:56;;;;;;;22.52;12.80;;;;;;;;;;4952918;29;20049;-61
2022/05/24 05:37:22;;;;;;;22.92;12.77;;;;;;;;;;4952735;29;20031;-61
2022/05/24 05:39:49;;;;;;;19.17;11.93;;;;;;;;;;4952831;28;20033;-61
2022/05/24 05:42:15;;;;;;;22.08;11.35;;;;;;;;;;4952515;28;20024;-61
2022/05/24 05:44:41;;;;;;;22.35;11.70;;;;;;;;;;4965993;23;20090;-62
2022/05/24 05:47:07;;;;;;;20.20;11.73;;;;;;;;;;4935442;29;20134;-64
2022/05/24 05:49:34;;;;;;;20.48;11.20;;;;;;;;;;4954070;29;20391;-66
2022/05/24 05:52:00;;;;;;;22.60;11.75;;;;;;;;;;4954273;28;20027;-65
2022/05/24 05:54:26;;;;;;;19.70;11.52;;;;;;;;;;4936419;29;20498;-66
2022/05/24 05:56:52;;;;;;;21.77;11.32;;;;;;;;;;4953986;29;20027;-65
2022/05/24 05:59:18;;;;;;;20.30;10.40;;;;;;;;;;4953963;28;20537;-67
2022/05/24 06:01:45;;;;;;;22.35;11.73;;;;;;;;;;4954564;29;20027;-65
2022/05/24 06:04:11;;;;;;;19.42;10.50;;;;;;;;;;4955044;28;20031;-65
2022/05/24 06:06:39;;;;;;;23.58;11.32;;;;;;;;;;4955131;29;20050;-67
2022/05/24 06:09:05;;;;;;;20.45;10.15;;;;;;;;;;5020436;28;20023;-66
2022/05/24 06:11:31;;;;;;;19.02;9.90;;;;;;;;;;5021007;28;20031;-66
2022/05/24 06:13:57;;;;;;;18.58;10.23;;;;;;;;;;4954134;28;20123;-65
2022/05/24 06:16:23;;;;;;;20.33;11.25;;;;;;;;;;5020664;28;20034;-65
2022/05/24 06:18:49;;;;;;;20.77;10.18;;;;;;;;;;4953988;28;20516;-66
2022/05/24 06:21:15;;;;;;;18.45;10.52;;;;;;;;;;4953492;28;20035;-64
2022/05/24 06:23:41;;;;;;;18.55;10.45;;;;;;;;;;4953006;28;20084;-65
2022/05/24 06:26:08;;;;;;;18.88;10.00;;;;;;;;;;4952930;29;20503;-66
2022/05/24 06:28:34;;;;;;;23.48;11.80;;;;;;;;;;4953031;28;20027;-66
2022/05/24 06:31:00;;;;;;;19.27;10.73;;;;;;;;;;5007990;28;20027;-65
2022/05/24 06:33:27;;;;;;;23.65;11.40;;;;;;;;;;4950752;29;20149;-62
2022/05/24 06:35:54;;;;;;;17.70;10.93;;;;;;;;;;4933999;28;20610;-65
2022/05/24 06:38:20;;;;;;;20.20;11.68;;;;;;;;;;4939618;28;20105;-67
2022/05/24 06:40:47;;;;;;;23.85;12.45;;;;;;;;;;5020631;28;20055;-66
2022/05/24 06:43:14;;;;;;;20.20;12.13;;;;;;;;;;4953143;28;20030;-66
2022/05/24 06:45:40;;;;;;;22.35;13.13;;;;;;;;;;4953130;28;20406;-65
2022/05/24 06:48:12;;;;;;;23.67;12.95;;;;;;;;;;5004668;28;20166;-63
2022/05/24 06:50:39;;;;;;;19.88;13.80;;;;;;;;;;4999741;28;20031;-65
2022/05/24 06:53:05;;;;;;;21.90;14.77;;;;;;;;;;5000120;28;20028;-68
2022/05/24 06:55:31;;;;;;;19.83;16.20;;;;;;;;;;4933978;28;20105;-65
2022/05/24 06:57:57;;;;;;;22.13;16.35;;;;;;;;;;4934218;28;20036;-65
2022/05/24 07:03:13;;;;;;;26.45;17.85;;;;;;;;;;4934461;28;20098;-64
2022/05/24 07:05:39;;;;;;;25.15;17.13;;;;;;;;;;5018439;28;20054;-66
2022/05/24 07:08:06;;;;;;;22.75;17.15;;;;;;;;;;4952654;28;20023;-65
2022/05/24 07:10:33;;;;;;;21.55;17.02;;;;;;;;;;5019714;28;20138;-67
2022/05/24 07:13:25;;;;;;;22.88;15.98;;;;;;;;;;5020203;28;20031;-66
2022/05/24 07:15:51;;;;;;;24.67;17.85;;;;;;;;;;5017227;28;20080;-66
2022/05/24 07:18:17;;;;;;;26.45;17.40;;;;;;;;;;5019114;28;20035;-67
2022/05/24 07:20:43;;;;;;;23.85;16.85;;;;;;;;;;4953740;29;20035;-65
2022/05/24 07:23:11;;;;;;;25.42;19.27;;;;;;;;;;4953481;28;20035;-66
2022/05/24 07:25:39;;;;;;;24.60;18.88;;;;;;;;;;4953559;28;20027;-65
2022/05/24 07:28:05;;;;;;;;;;;;;;;;;;4953111;28;20023;-65
2022/05/24 07:30:32;;;;;;;22.52;17.75;;;;;;;;;;4953395;28;19906;-65
2022/05/24 07:32:58;;;;;;;24.15;18.13;;;;;;;;;;4952621;29;20028;-65
2022/05/24 07:35:24;;;;;;;22.75;18.58;;;;;;;;;;4953099;29;20706;-60
2022/05/24 07:37:50;;;;;;;26.35;19.77;;;;;;;;;;4953185;28;20031;-59
2022/05/24 07:45:58;;;;;;;21.63;18.33;;;;;;;;;;4933965;29;20637;-56
2022/05/24 07:48:24;;;;;;;26.57;18.27;;;;;;;;;;5018959;28;20116;-55
2022/05/24 07:50:51;;;;;;;20.85;17.42;;;;;;;;;;4953015;28;20502;-58
2022/05/24 07:53:17;;;;;;;20.70;17.15;;;;;;;;;;4951825;28;20023;-60
2022/05/24 07:55:44;;;;;;;21.90;16.30;;;;;;;;;;4952651;28;20472;-57
2022/05/24 07:58:10;;;;;;;23.90;16.58;;;;;;;;;;4952360;29;20023;-60
2022/05/24 08:00:36;;;;;;;21.27;16.98;;;;;;;;;;4952445;28;20028;-57
2022/05/24 08:03:04;;;;;;;22.27;17.40;;;;;;;;;;4952168;28;20348;-53
2022/05/24 08:05:31;;;;;;;22.02;16.27;;;;;;;;;;4941738;29;20024;-58
2022/05/24 08:07:57;;;;;;;23.80;16.25;;;;;;;;;;4999079;28;20024;-58
2022/05/24 08:10:24;;;;;;;21.63;16.35;;;;;;;;;;4998957;28;20024;-55
2022/05/24 08:12:50;;;;;;;20.15;15.55;;;;;;;;;;4998574;28;20027;-59
2022/05/24 08:15:16;;;;;;;20.17;14.43;;;;;;;;;;4933146;29;20103;-59
2022/05/24 08:17:42;;;;;;;24.10;15.23;;;;;;;;;;4997993;28;20122;-59
2022/05/24 08:20:10;;;;;;;21.15;14.75;;;;;;;;;;4933246;29;20038;-57
2022/05/24 08:22:37;;;;;;;20.97;14.63;;;;;;;;;;4943380;28;20391;-59
2022/05/24 08:25:03;;;;;;;23.40;15.20;;;;;;;;;;4940382;29;20134;-60
2022/05/24 08:27:29;;;;;;;22.75;15.30;;;;;;;;;;4942893;29;20474;-60
2022/05/24 08:29:57;;;;;;;20.65;15.90;;;;;;;;;;4941973;29;20022;-57
2022/05/24 08:32:23;;;;;;;19.52;13.98;;;;;;;;;;4940988;28;20069;-58
2022/05/24 08:34:49;;;;;;;19.77;14.35;;;;;;;;;;4941122;29;20024;-56
2022/05/24 08:37:15;;;;;;;21.05;15.82;;;;;;;;;;4941797;28;20152;-60
2022/05/24 08:39:41;;;;;;;20.48;14.88;;;;;;;;;;4942330;29;20023;-60
2022/05/24 08:42:07;;;;;;;22.60;14.50;;;;;;;;;;4941019;29;20038;-56
2022/05/24 08:50:06;;;;;;;20.23;14.43;;;;;;;;;;4942883;29;20073;-61
2022/05/24 08:52:35;;;;;;;22.45;16.10;;;;;;;;;;4938559;28;20028;-57
2022/05/24 08:55:02;;;;;;;21.85;15.40;;;;;;;;;;4933220;28;20034;-65
2022/05/24 08:57:37;;;;;;;19.48;14.40;;;;;;;;;;4590513;28;9999685;-65
2022/05/24 09:00:06;;;;;;;20.27;13.70;;;;;;;;;;4965913;28;20057;-65
2022/05/24 09:02:32;;;;;;;20.60;12.63;;;;;;;;;;4940781;29;20024;-63
2022/05/24 09:04:58;;;;;;;19.42;11.80;;;;;;;;;;4937608;29;20074;-64
2022/05/24 09:07:24;;;;;;;17.98;10.82;;;;;;;;;;5004419;28;20019;-65
2022/05/24 09:10:16;;;;;;;17.92;12.23;;;;;;;;;;5002857;28;20044;-64
2022/05/24 09:12:45;;;;;;;18.10;11.77;;;;;;;;;;4939175;28;20089;-62
2022/05/24 09:15:11;;;;;;;17.17;11.82;;;;;;;;;;4939110;29;20480;-63
2022/05/24 09:17:37;;;;;;;18.75;11.18;;;;;;;;;;4994837;28;20044;-64
2022/05/24 09:20:30;;;;;;;16.05;10.60;;;;;;;;;;4937299;28;20031;-65
2022/05/24 09:23:00;;;;;;;18.23;11.88;;;;;;;;;;4956117;28;20063;-61
2022/05/24 09:25:26;;;;;;;17.85;11.10;;;;;;;;;;4987030;28;20044;-63
2022/05/24 09:27:54;;;;;;;17.63;11.30;;;;;;;;;;5008882;28;20028;-63
2022/05/24 09:30:26;;;;;;;15.95;10.50;;;;;;;;;;4995590;28;20024;-64
2022/05/24 09:32:53;;;;;;;18.45;10.98;;;;;;;;;;4929662;28;20042;-63
2022/05/24 09:35:19;;;;;;;19.27;11.48;;;;;;;;;;4931529;28;20035;-64
2022/05/24 09:37:46;;;;;;;20.30;10.70;;;;;;;;;;4931985;28;20027;-65
2022/05/24 09:40:21;;;;;;;16.92;10.45;;;;;;;;;;4933459;28;20089;-64
2022/05/24 09:42:48;;;;;;;16.02;10.30;;;;;;;;;;4998378;28;20040;-64
2022/05/24 09:45:17;;;;;;;16.58;9.68;;;;;;;;;;4932602;29;20039;-64
2022/05/24 09:47:46;;;;;;;17.58;9.68;;;;;;;;;;4997707;28;20027;-63
2022/05/24 09:50:24;;;;;;;16.67;9.55;;;;;;;;;;4932277;29;20027;-64
2022/05/24 09:53:02;;;;;;;16.33;9.30;;;;;;;;;;4932419;29;20028;-63
2022/05/24 09:55:46;;;;;;;16.98;9.40;;;;;;;;;;4998198;28;20032;-64
2022/05/24 09:58:18;;;;;;;17.30;8.82;;;;;;;;;;4933302;28;20491;-64
2022/05/24 10:00:51;;;;;;;17.92;8.88;;;;;;;;;;4932341;29;20078;-64
2022/05/24 10:03:20;;;;;;;15.88;9.20;;;;;;;;;;4932113;28;20550;-63
2022/05/24 10:05:53;;;;;;;17.48;8.35;;;;;;;;;;4935744;28;20027;-62
2022/05/24 10:08:19;;;;;;;16.58;8.50;;;;;;;;;;4950367;29;20077;-64
2022/05/24 10:10:47;;;;;;;15.68;8.65;;;;;;;;;;4951024;29;20027;-64
2022/05/24 10:13:16;;;;;;;18.65;8.90;;;;;;;;;;4950566;29;20098;-63
2022/05/24 10:16:00;;;;;;;15.98;8.48;;;;;;;;;;4951304;28;20031;-63
2022/05/24 10:18:32;;;;;;;19.60;8.45;;;;;;;;;;4953751;29;20031;-63
2022/05/24 10:21:04;;;;;;;16.77;9.32;;;;;;;;;;4954190;28;20039;-63
2022/05/24 10:23:49;;;;;;;14.90;9.25;;;;;;;;;;4954618;29;20042;-64
2022/05/24 10:26:15;;;;;;;17.70;8.55;;;;;;;;;;4954438;28;20034;-65
2022/05/24 10:28:45;;;;;;;15.65;8.80;;;;;;;;;;4953786;29;20023;-68
2022/05/24 10:31:29;;;;;;;15.35;8.75;;;;;;;;;;4954345;29;20030;-66
2022/05/24 10:39:51;;;;;;;16.75;8.10;;;;;;;;;;4954755;29;20054;-66
2022/05/24 10:42:20;;;;;;;14.60;8.15;;;;;;;;;;5019181;28;20096;-64
2022/05/24 10:44:48;;;;;;;14.73;8.00;;;;;;;;;;4953004;29;20403;-65
2022/05/24 10:47:24;;;;;;;15.45;8.52;;;;;;;;;;4953237;29;20027;-64
2022/05/24 10:49:53;;;;;;;17.02;8.15;;;;;;;;;;5020264;28;20028;-64
2022/05/24 10:52:22;;;;;;;16.50;7.80;;;;;;;;;;4953656;28;20031;-65
2022/05/24 10:54:48;;;;;;;15.23;7.80;;;;;;;;;;5019687;28;20035;-65
2022/05/24 10:57:20;;;;;;;14.13;8.40;;;;;;;;;;4953136;29;20100;-65
2022/05/24 10:59:50;;;;;;;16.10;9.20;;;;;;;;;;4935220;28;20039;-66
2022/05/24 11:02:22;;;;;;;16.42;8.75;;;;;;;;;;5000002;28;20071;-65
2022/05/24 11:04:59;;;;;;;15.02;8.80;;;;;;;;;;4934242;28;20127;-66
2022/05/24 11:07:26;;;;;;;16.83;8.90;;;;;;;;;;5016920;28;20019;-65
2022/05/24 11:09:56;;;;;;;14.82;8.85;;;;;;;;;;4952765;28;20098;-65
2022/05/24 11:12:25;;;;;;;15.18;9.00;;;;;;;;;;5019995;28;20453;-65
2022/05/24 11:15:00;;;;;;;16.23;9.05;;;;;;;;;;5021031;28;20046;-64
2022/05/24 11:17:26;;;;;;;20.70;9.60;;;;;;;;;;4953101;29;20062;-65
2022/05/24 11:19:54;;;;;;;17.13;10.05;;;;;;;;;;5019255;28;20475;-66
2022/05/24 11:22:29;;;;;;;16.05;9.65;;;;;;;;;;5019492;28;20035;-63
2022/05/24 11:25:08;;;;;;;16.90;10.10;;;;;;;;;;4953284;28;20027;-65
2022/05/24 11:27:41;;;;;;;14.73;8.65;;;;;;;;;;4952582;28;20034;-66
2022/05/24 11:30:08;;;;;;;16.15;9.32;;;;;;;;;;4953179;29;20229;-65
2022/05/24 11:32:36;;;;;;;17.30;9.23;;;;;;;;;;4953168;29;20031;-65
2022/05/24 11:35:02;;;;;;;;;;;;;;;;;;4255292;28;9999946;-65
2022/05/24 11:37:29;;;;;;;17.15;9.55;;;;;;;;;;4932866;29;20045;-65
2022/05/24 11:39:56;;;;;;;15.73;9.43;;;;;;;;;;4932588;29;20472;-66
2022/05/24 11:42:22;;;;;;;16.02;9.70;;;;;;;;;;4933404;29;20054;-64
2022/05/24 11:44:48;;;;;;;17.65;11.10;;;;;;;;;;4933553;29;20024;-63
2022/05/24 11:47:44;;;;;;;15.93;10.18;;;;;;;;;;4967074;23;20043;-54
2022/05/24 11:50:33;;;;;;;21.20;10.05;;;;;;;;;;4898749;29;20033;-55
2022/05/24 11:53:11;;;;;;;15.63;10.55;;;;;;;;;;4942996;29;20102;-57
2022/05/24 11:55:48;;;;;;;17.90;10.10;;;;;;;;;;4950559;29;20038;-56
2022/05/24 11:58:22;;;;;;;15.07;9.70;;;;;;;;;;4810000;28;10000765;-58
2022/05/24 12:00:58;;;;;;;17.02;10.13;;;;;;;;;;4946970;29;20247;-58
2022/05/24 12:09:13;;;;;;;15.43;9.60;;;;;;;;;;4928990;29;20042;-59
2022/05/24 12:11:40;;;;;;;14.60;8.70;;;;;;;;;;4928738;29;20032;-57
2022/05/24 12:14:15;;;;;;;16.08;9.27;;;;;;;;;;4928677;28;20190;-56
2022/05/24 12:16:48;;;;;;;15.45;9.82;;;;;;;;;;4930457;28;20063;-59
2022/05/24 12:19:33;;;;;;;15.70;9.90;;;;;;;;;;4937141;29;20028;-58
2022/05/24 12:22:09;;;;;;;15.80;9.77;;;;;;;;;;4937595;28;20027;-58
2022/05/24 12:24:41;;;;;;;14.68;9.02;;;;;;;;;;4937260;29;20399;-57
2022/05/24 12:27:22;;;;;;;15.13;9.40;;;;;;;;;;5004539;28;20020;-54
2022/05/24 12:29:54;;;;;;;16.38;9.70;;;;;;;;;;4938525;28;20507;-59
2022/05/24 12:32:22;;;;;;;15.00;10.00;;;;;;;;;;4937679;28;20094;-60
2022/05/24 12:34:48;;;;;;;14.88;10.10;;;;;;;;;;4936338;28;20031;-59
2022/05/24 12:37:25;;;;;;;15.15;10.50;;;;;;;;;;4941921;29;20111;-59
2022/05/24 12:40:09;;;;;;;17.10;10.50;;;;;;;;;;5014719;28;20437;-59
2022/05/24 12:42:41;;;;;;;16.02;10.45;;;;;;;;;;5014740;28;20027;-58
2022/05/24 12:45:08;;;;;;;18.58;11.63;;;;;;;;;;4950407;29;20028;-60
2022/05/24 12:47:34;;;;;;;15.68;10.95;;;;;;;;;;4949599;28;20061;-58
2022/05/24 12:50:00;;;;;;;15.43;11.02;;;;;;;;;;4949737;29;20111;-60
2022/05/24 12:52:26;;;;;;;16.42;10.82;;;;;;;;;;4950009;28;20043;-59
2022/05/24 12:54:57;;;;;;;16.90;10.93;;;;;;;;;;4949648;28;20027;-58
2022/05/24 12:57:22;;;;;;;16.95;11.13;;;;;;;;;;4948498;28;20418;-59
2022/05/24 12:59:54;;;;;;;15.23;10.35;;;;;;;;;;4996565;28;20078;-55
2022/05/24 13:02:32;;;;;;;15.75;10.98;;;;;;;;;;4930907;29;20385;-59
2022/05/24 13:05:01;;;;;;;16.23;10.68;;;;;;;;;;4996014;28;20074;-59
2022/05/24 13:07:36;;;;;;;17.05;11.52;;;;;;;;;;4947308;29;20032;-58
2022/05/24 13:10:21;;;;;;;16.27;11.63;;;;;;;;;;4949310;29;20027;-59
2022/05/24 13:12:50;;;;;;;19.83;11.70;;;;;;;;;;5015471;28;20494;-59
2022/05/24 13:15:18;;;;;;;17.80;11.65;;;;;;;;;;5015886;28;20368;-59
2022/05/24 13:17:46;;;;;;;18.20;12.55;;;;;;;;;;5015526;28;20394;-60
2022/05/24 13:20:18;;;;;;;17.67;12.37;;;;;;;;;;4949205;28;20398;-60
2022/05/24 13:22:50;;;;;;;17.60;11.90;;;;;;;;;;4949195;29;20028;-57
2022/05/24 13:25:19;;;;;;;17.92;11.77;;;;;;;;;;4949050;29;20510;-57
2022/05/24 13:27:55;;;;;;;16.33;12.13;;;;;;;;;;4949103;29;20019;-59
2022/05/24 13:33:34;;;;;;;17.42;11.70;;;;;;;;;;4950329;29;20486;-60
2022/05/24 13:36:20;;;;;;;16.55;11.10;;;;;;;;;;4954376;29;20111;-59
2022/05/24 13:39:10;;;;;;;20.48;16.98;;;;;;;;;;4956362;28;20513;-59
2022/05/24 13:41:38;;;;;;;20.75;18.13;;;;;;;;;;4957463;28;20076;-60
2022/05/24 13:44:20;;;;;;;21.97;19.50;;;;;;;;;;4953041;29;20023;-60
2022/05/24 13:46:58;;;;;;;20.30;17.98;;;;;;;;;;4951536;29;20028;-59
2022/05/24 13:49:36;;;;;;;23.98;21.13;;;;;;;;;;4940526;28;20023;-57
2022/05/24 13:52:21;;;;;;;22.77;20.38;;;;;;;;;;4599138;28;10000003;-58
2022/05/24 13:54:48;;;;;;;22.48;19.27;;;;;;;;;;4951676;29;20031;-58
2022/05/24 13:57:23;;;;;;;23.63;20.38;;;;;;;;;;4941658;29;20036;-57
2022/05/24 13:59:57;;;;;;;22.88;20.27;;;;;;;;;;4939310;28;20031;-59
2022/05/24 14:02:24;;;;;;;21.77;19.48;;;;;;;;;;4939364;28;20035;-58
2022/05/24 14:04:50;;;;;;;21.30;18.80;;;;;;;;;;4940612;29;20028;-54
2022/05/24 14:07:18;;;;;;;21.33;18.33;;;;;;;;;;4938485;29;20132;-55
2022/05/24 14:09:44;;;;;;;21.98;19.48;;;;;;;;;;4939234;28;20019;-62
2022/05/24 14:12:10;;;;;;;20.60;17.70;;;;;;;;;;5012583;28;20038;-59
2022/05/24 14:14:37;;;;;;;23.77;17.67;;;;;;;;;;4943573;29;20027;-59
2022/05/24 14:17:06;;;;;;;22.20;17.70;;;;;;;;;;4938053;28;20039;-55
2022/05/24 14:19:31;;;;;;;;;;;;;;;;;;4936387;29;20077;-56
2022/05/24 14:21:58;;;;;;;20.92;15.77;;;;;;;;;;4999485;28;19910;-54
2022/05/24 14:24:26;;;;;;;21.08;15.93;;;;;;;;;;4942553;28;20088;-59
2022/05/24 14:26:54;;;;;;;20.08;14.38;;;;;;;;;;5007543;28;20027;-56
2022/05/24 14:29:21;;;;;;;20.90;15.93;;;;;;;;;;4945895;28;20041;-56
2022/05/24 14:31:48;;;;;;;21.05;16.95;;;;;;;;;;4940524;29;20733;-59
2022/05/24 14:34:14;;;;;;;22.08;16.02;;;;;;;;;;4933600;28;20082;-58
2022/05/24 14:36:41;;;;;;;23.85;19.77;;;;;;;;;;4946954;29;20035;-61
2022/05/24 14:39:08;;;;;;;25.08;21.50;;;;;;;;;;5016715;28;20458;-59
2022/05/24 14:41:35;;;;;;;24.10;20.40;;;;;;;;;;4606659;28;10000079;-57
2022/05/24 14:44:04;;;;;;;24.20;20.55;;;;;;;;;;5014913;28;20031;-55
2022/05/24 14:46:31;;;;;;;25.52;19.95;;;;;;;;;;4948713;28;20047;-56
2022/05/24 14:48:58;;;;;;;24.50;20.00;;;;;;;;;;4948255;29;20114;-59
2022/05/24 14:51:29;;;;;;;25.13;18.88;;;;;;;;;;4934976;29;20028;-60
2022/05/24 14:53:55;;;;;;;19.92;15.90;;;;;;;;;;4930139;29;20210;-58
2022/05/24 14:56:22;;;;;;;21.75;17.48;;;;;;;;;;4931341;29;20031;-61
2022/05/24 14:58:48;;;;;;;21.13;16.05;;;;;;;;;;4931836;29;20166;-58
2022/05/24 15:01:14;;;;;;;20.45;15.98;;;;;;;;;;4931921;29;20024;-58
2022/05/24 15:03:43;;;;;;;20.20;16.38;;;;;;;;;;4943120;29;20110;-58
2022/05/24 15:06:09;;;;;;;20.73;16.17;;;;;;;;;;4951097;29;20027;-60
2022/05/24 15:16:56;;;;;;;21.42;17.73;;;;;;;;;;4950730;29;20096;-60
2022/05/24 15:19:22;;;;;;;21.48;16.58;;;;;;;;;;4950967;28;20098;-61
2022/05/24 15:21:49;;;;;;;23.40;20.65;;;;;;;;;;4933471;29;20639;-60
2022/05/24 15:24:18;;;;;;;25.08;22.38;;;;;;;;;;4932314;28;20028;-60